createdAt,value
2019-02-26T00:01:39.478Z,102164.41
2019-02-26T00:03:14.225Z,102169.30
2019-02-26T00:04:49.941Z,102173.30
2019-02-26T00:06:25.378Z,102169.40
2019-02-26T00:08:02.684Z,102173.84
2019-02-26T00:09:37.213Z,102174.77
2019-02-26T00:11:11.584Z,102177.82
2019-02-26T00:12:45.994Z,102176.86
2019-02-26T00:14:22.405Z,102168.69
2019-02-26T00:15:57.015Z,102170.75
2019-02-26T00:17:36.065Z,102166.74
2019-02-26T00:19:09.631Z,102166.28
2019-02-26T00:20:44.024Z,102156.94
2019-02-26T00:22:18.403Z,102156.61
2019-02-26T00:23:53.185Z,102156.64
2019-02-26T00:25:27.996Z,102156.49
2019-02-26T00:27:03.792Z,102156.63
2019-02-26T00:28:39.886Z,102166.83
2019-02-26T00:30:16.651Z,102163.55
2019-02-26T00:31:52.917Z,102157.42
2019-02-26T00:33:28.982Z,102155.74
2019-02-26T00:35:04.302Z,102146.48
2019-02-26T00:36:39.284Z,102145.31
2019-02-26T00:38:15.554Z,102141.94
2019-02-26T00:39:51.696Z,102140.14
2019-02-26T00:41:26.924Z,102141.89
2019-02-26T00:43:04.794Z,102148.20
2019-02-26T00:44:38.867Z,102142.73
2019-02-26T00:46:13.246Z,102145.17
2019-02-26T00:47:47.637Z,102150.88
2019-02-26T00:49:23.551Z,102147.23
2019-02-26T00:50:59.433Z,102147.05
2019-02-26T00:52:36.635Z,102145.94
2019-02-26T00:54:10.770Z,102149.02
2019-02-26T00:55:45.263Z,102149.55
2019-02-26T00:57:20.019Z,102152.34
2019-02-26T00:58:54.393Z,102150.83
2019-02-26T01:00:30.757Z,102147.59
2019-02-26T01:02:05.178Z,102157.50
2019-02-26T01:03:40.776Z,102150.09
2019-02-26T01:05:16.829Z,102143.05
2019-02-26T01:06:51.630Z,102150.30
2019-02-26T01:08:26.001Z,102153.76
2019-02-26T01:10:00.447Z,102151.52
2019-02-26T01:11:34.927Z,102153.13
2019-02-26T01:13:09.590Z,102150.53
2019-02-26T01:14:46.336Z,102143.30
2019-02-26T01:16:20.862Z,102138.25
2019-02-26T01:17:57.133Z,102138.48
2019-02-26T01:19:34.162Z,102143.69
2019-02-26T01:21:09.639Z,102140.27
2019-02-26T01:22:45.352Z,102135.98
2019-02-26T01:24:21.425Z,102123.19
2019-02-26T01:25:56.810Z,102112.48
2019-02-26T01:27:31.504Z,102119.84
2019-02-26T01:29:06.418Z,102117.71
2019-02-26T01:30:41.119Z,102117.03
2019-02-26T01:32:16.081Z,102108.33
2019-02-26T01:33:52.986Z,102108.84
2019-02-26T01:35:28.997Z,102108.25
2019-02-26T01:37:06.058Z,102105.44
2019-02-26T01:38:41.668Z,102100.87
2019-02-26T01:40:21.025Z,102094.17
2019-02-26T01:41:55.997Z,102085.14
2019-02-26T01:43:29.257Z,102075.11
2019-02-26T01:45:03.990Z,102088.65
2019-02-26T01:46:38.903Z,102080.73
2019-02-26T01:48:16.748Z,102081.23
2019-02-26T01:49:51.350Z,102071.90
2019-02-26T01:51:28.425Z,102071.41
2019-02-26T01:53:02.225Z,102073.00
2019-02-26T01:54:37.463Z,102068.57
2019-02-26T01:56:13.195Z,102073.56
2019-02-26T01:57:48.006Z,102080.26
2019-02-26T01:59:22.698Z,102077.33
2019-02-26T02:00:57.081Z,102079.70
2019-02-26T02:02:31.907Z,102077.13
2019-02-26T03:46:29.465Z,102071.81
2019-02-26T03:48:03.949Z,102075.27
2019-02-26T03:49:41.712Z,102086.64
2019-02-26T03:51:17.198Z,102080.06
2019-02-26T03:52:51.046Z,102089.70
2019-02-26T03:54:25.431Z,102083.91
2019-02-26T03:56:04.230Z,102092.52
2019-02-26T03:57:41.079Z,102091.07
2019-02-26T03:59:12.786Z,102092.95
2019-02-26T04:00:47.318Z,102093.47
2019-02-26T04:02:23.488Z,102098.92
2019-02-26T04:03:59.872Z,102100.78
2019-02-26T04:05:34.550Z,102096.70
2019-02-26T04:07:10.668Z,102086.52
2019-02-26T04:08:48.032Z,102085.90
2019-02-26T04:10:21.838Z,102080.39
2019-02-26T04:11:56.397Z,102086.33
2019-02-26T04:13:30.778Z,102086.95
2019-02-26T04:15:06.457Z,102088.34
2019-02-26T04:16:43.616Z,102096.79
2019-02-26T04:18:19.258Z,102090.06
2019-02-26T04:19:53.898Z,102098.23
2019-02-26T04:22:05.198Z,102103.76
2019-02-26T04:23:42.116Z,102102.01
2019-02-26T04:25:38.798Z,102092.20
2019-02-26T04:27:44.234Z,102092.52
2019-02-26T04:29:35.400Z,102081.47
2019-02-26T04:31:52.156Z,102074.80
2019-02-26T04:34:08.685Z,102061.70
2019-02-26T04:36:02.649Z,102058.30
2019-02-26T04:38:13.397Z,102055.64
2019-02-26T04:40:17.800Z,102047.42
2019-02-26T04:42:05.578Z,102042.68
2019-02-26T04:44:14.541Z,102044.41
2019-02-26T04:46:13.645Z,102062.81
2019-02-26T04:47:51.425Z,102068.55
2019-02-26T04:49:27.047Z,102065.33
2019-02-26T04:51:01.246Z,102061.50
2019-02-26T04:52:37.779Z,102070.76
2019-02-26T04:54:17.315Z,102072.45
2019-02-26T04:55:48.310Z,102066.55
2019-02-26T04:57:23.311Z,102068.46
2019-02-26T04:58:57.908Z,102067.72
2019-02-26T05:00:35.906Z,102075.16
2019-02-26T05:02:09.313Z,102091.56
2019-02-26T05:03:44.034Z,102087.93
2019-02-26T05:05:18.405Z,102092.13
2019-02-26T05:06:53.189Z,102090.67
2019-02-26T05:08:29.380Z,102085.48
2019-02-26T05:10:03.758Z,102074.36
2019-02-26T05:11:40.649Z,102067.89
2019-02-26T05:13:14.913Z,102066.70
2019-02-26T05:14:49.309Z,102061.14
2019-02-26T05:16:26.065Z,102063.01
2019-02-26T05:17:59.830Z,102067.44
2019-02-26T05:19:36.371Z,102062.78
2019-02-26T05:21:12.893Z,102074.44
2019-02-26T05:22:46.754Z,102066.13
2019-02-26T05:24:21.822Z,102069.02
2019-02-26T05:26:02.959Z,102069.00
2019-02-26T05:27:36.146Z,102066.42
2019-02-26T05:29:14.721Z,102057.35
2019-02-26T05:30:51.336Z,102049.41
2019-02-26T05:32:29.350Z,102044.91
2019-02-26T05:34:02.605Z,102044.13
2019-02-26T05:35:38.747Z,102043.53
2019-02-26T05:37:14.083Z,102041.72
2019-02-26T05:38:49.750Z,102039.56
2019-02-26T05:40:25.668Z,102032.66
2019-02-26T05:42:01.328Z,102028.35
2019-02-26T05:43:39.952Z,102030.34
2019-02-26T05:45:15.146Z,102028.34
2019-02-26T05:46:53.018Z,102031.69
2019-02-26T05:48:27.062Z,102042.41
2019-02-26T05:50:02.701Z,102032.95
2019-02-26T05:51:38.610Z,102033.12
2019-02-26T05:53:13.659Z,102023.91
2019-02-26T05:54:48.719Z,102022.25
2019-02-26T05:56:23.542Z,102041.31
2019-02-26T05:57:58.047Z,102040.96
2019-02-26T05:59:32.657Z,102037.50
2019-02-26T06:01:07.220Z,102034.34
2019-02-26T06:02:44.240Z,102028.48
2019-02-26T06:04:20.647Z,102025.21
2019-02-26T06:05:55.524Z,102030.23
2019-02-26T06:07:33.632Z,102038.91
2019-02-26T06:09:07.666Z,102034.77
2019-02-26T06:10:42.876Z,102034.59
2019-02-26T06:12:17.251Z,102048.77
2019-02-26T06:13:51.612Z,102048.09
2019-02-26T06:15:28.800Z,102046.58
2019-02-26T06:17:02.699Z,102060.02
2019-02-26T06:18:41.159Z,102060.95
2019-02-26T06:20:19.026Z,102060.50
2019-02-26T06:21:54.815Z,102055.13
2019-02-26T06:23:31.721Z,102059.68
2019-02-26T06:25:14.082Z,102066.07
2019-02-26T06:26:45.852Z,102067.09
2019-02-26T06:28:20.715Z,102072.64
2019-02-26T06:29:57.236Z,102076.20
2019-02-26T06:31:31.963Z,102073.75
2019-02-26T06:33:09.122Z,102069.73
2019-02-26T06:34:43.178Z,102061.81
2019-02-26T06:36:19.238Z,102058.81
2019-02-26T06:37:54.236Z,102062.14
2019-02-26T06:39:29.832Z,102049.23
2019-02-26T06:41:05.577Z,102052.09
2019-02-26T06:42:40.388Z,102057.20
2019-02-26T06:44:15.334Z,102060.69
2019-02-26T06:45:49.697Z,102065.27
2019-02-26T06:47:27.987Z,102065.73
2019-02-26T06:49:00.588Z,102063.68
2019-02-26T06:50:36.807Z,102065.50
2019-02-26T06:52:13.542Z,102064.64
2019-02-26T06:53:51.684Z,102067.61
2019-02-26T06:55:26.069Z,102060.95
2019-02-26T06:57:00.788Z,102064.69
2019-02-26T06:58:36.214Z,102063.42
2019-02-26T07:00:12.815Z,102055.91
2019-02-26T07:01:47.208Z,102053.73
2019-02-26T07:03:24.170Z,102037.13
2019-02-26T07:04:58.066Z,102029.28
2019-02-26T07:06:33.159Z,102031.34
2019-02-26T07:08:08.636Z,102034.68
2019-02-26T07:09:43.933Z,102030.81
2019-02-26T07:11:18.912Z,102029.02
2019-02-26T07:12:53.737Z,102035.71
2019-02-26T07:14:30.231Z,102037.98
2019-02-26T07:16:05.668Z,102029.27
2019-02-26T07:17:42.528Z,102032.88
2019-02-26T07:19:17.368Z,102027.28
2019-02-26T07:20:55.026Z,102022.77
2019-02-26T07:22:29.972Z,102022.19
2019-02-26T07:24:04.809Z,102020.11
2019-02-26T07:25:42.163Z,102020.52
2019-02-26T07:27:16.144Z,101998.39
2019-02-26T07:28:51.196Z,102003.53
2019-02-26T07:30:25.997Z,102008.27
2019-02-26T07:32:00.786Z,102009.86
2019-02-26T07:33:37.811Z,102007.88
2019-02-26T07:35:16.027Z,102007.20
2019-02-26T07:36:50.666Z,102016.52
2019-02-26T07:38:27.565Z,102012.91
2019-02-26T07:40:03.755Z,102005.40
2019-02-26T07:41:38.662Z,102005.78
2019-02-26T07:43:15.423Z,102016.38
2019-02-26T07:44:49.161Z,102023.67
2019-02-26T07:46:23.643Z,102029.66
2019-02-26T07:47:59.088Z,102029.98
2019-02-26T07:49:34.718Z,102032.86
2019-02-26T07:51:09.089Z,102026.95
2019-02-26T07:52:43.482Z,102019.20
2019-02-26T07:54:17.904Z,102020.77
2019-02-26T07:55:52.384Z,102014.11
2019-02-26T07:57:27.645Z,102011.45
2019-02-26T07:59:06.803Z,102017.28
2019-02-26T08:00:40.359Z,102016.61
2019-02-26T08:02:15.318Z,102022.17
2019-02-26T08:03:51.512Z,102011.03
2019-02-26T08:05:26.802Z,102020.53
2019-02-26T08:07:03.743Z,102019.16
2019-02-26T08:08:40.159Z,102019.86
2019-02-26T08:10:19.273Z,102019.17
2019-02-26T08:11:53.814Z,102024.04
2019-02-26T08:13:29.891Z,102024.96
2019-02-26T08:15:08.566Z,102024.39
2019-02-26T08:16:43.319Z,102028.92
2019-02-26T08:18:18.110Z,102045.41
2019-02-26T08:19:54.467Z,102061.73
2019-02-26T08:21:29.746Z,102060.23
2019-02-26T08:23:04.628Z,102051.25
2019-02-26T08:24:39.671Z,102044.81
2019-02-26T08:26:15.520Z,102037.39
2019-02-26T08:27:52.134Z,102038.73
2019-02-26T08:29:29.021Z,102030.83
2019-02-26T08:31:05.348Z,102031.19
2019-02-26T08:32:39.911Z,102031.79
2019-02-26T08:34:15.780Z,102022.87
2019-02-26T08:35:50.285Z,102023.02
2019-02-26T08:37:24.773Z,102018.48
2019-02-26T08:38:59.279Z,102024.41
2019-02-26T08:40:33.768Z,102018.09
2019-02-26T08:42:09.647Z,102014.72
2019-02-26T08:43:46.547Z,102025.97
2019-02-26T08:45:23.126Z,102031.13
2019-02-26T08:46:57.044Z,102051.54
2019-02-26T08:48:31.473Z,102053.57
2019-02-26T08:50:09.422Z,102050.23
2019-02-26T08:51:43.056Z,102054.88
2019-02-26T08:53:17.454Z,102046.30
2019-02-26T08:54:52.014Z,102039.55
2019-02-26T08:56:28.297Z,102037.14
2019-02-26T08:58:02.456Z,102031.97
2019-02-26T08:59:37.214Z,102031.59
2019-02-26T09:01:12.324Z,102025.37
2019-02-26T09:02:50.551Z,102027.94
2019-02-26T09:04:24.151Z,102024.13
2019-02-26T09:06:12.413Z,102024.39
2019-02-26T09:07:37.551Z,102014.84
2019-02-26T09:09:12.722Z,102011.42
2019-02-26T09:10:48.656Z,102016.47
2019-02-26T09:12:24.745Z,102014.95
2019-02-26T09:14:03.969Z,102020.02
2019-02-26T09:15:39.053Z,102017.67
2019-02-26T09:17:18.722Z,102016.52
2019-02-26T09:18:52.465Z,102009.98
2019-02-26T09:20:27.244Z,102018.38
2019-02-26T09:22:02.110Z,102018.38
2019-02-26T09:23:39.748Z,102019.87
2019-02-26T09:25:16.324Z,102021.47
2019-02-26T09:26:52.078Z,102014.95
2019-02-26T09:28:29.437Z,102013.33
2019-02-26T09:30:08.463Z,102010.00
2019-02-26T09:31:44.717Z,102008.25
2019-02-26T09:33:20.125Z,102014.61
2019-02-26T09:34:56.958Z,102009.77
2019-02-26T09:36:32.896Z,102013.39
2019-02-26T09:38:08.384Z,102017.77
2019-02-26T09:39:45.296Z,102019.33
2019-02-26T09:41:23.790Z,102015.35
2019-02-26T09:43:00.292Z,102019.44
2019-02-26T09:44:39.965Z,102016.46
2019-02-26T09:46:16.912Z,102021.30
2019-02-26T09:47:54.363Z,102019.47
2019-02-26T09:49:30.890Z,102020.80
2019-02-26T09:51:07.021Z,102017.59
2019-02-26T09:52:42.045Z,102014.58
2019-02-26T09:54:17.836Z,102018.72
2019-02-26T09:55:53.632Z,102022.59
2019-02-26T09:57:29.024Z,102026.28
2019-02-26T09:59:05.137Z,102020.17
2019-02-26T10:00:43.114Z,102019.13
2019-02-26T10:02:20.117Z,102020.92
2019-02-26T10:03:56.093Z,102022.84
2019-02-26T10:05:32.376Z,102020.88
2019-02-26T10:07:09.401Z,102017.66
2019-02-26T10:08:46.003Z,102016.85
2019-02-26T10:10:20.959Z,102021.00
2019-02-26T10:11:56.108Z,102024.19
2019-02-26T10:13:31.196Z,102015.70
2019-02-26T10:15:07.332Z,102029.39
2019-02-26T10:17:01.174Z,102026.22
2019-02-26T10:18:36.240Z,102022.25
2019-02-26T10:20:14.408Z,102021.38
2019-02-26T10:21:49.432Z,102022.75
2019-02-26T10:23:29.065Z,102019.22
2019-02-26T10:25:05.772Z,102011.59
2019-02-26T10:26:43.351Z,102016.25
2019-02-26T10:28:21.006Z,102013.48
2019-02-26T10:29:56.593Z,102004.55
2019-02-26T10:31:33.602Z,102007.67
2019-02-26T10:33:10.140Z,102010.93
2019-02-26T10:34:44.978Z,102010.55
2019-02-26T10:36:19.968Z,102000.50
2019-02-26T10:37:57.065Z,102001.62
2019-02-26T10:39:32.284Z,102006.37
2019-02-26T10:41:07.196Z,102008.02
2019-02-26T10:42:42.261Z,102006.36
2019-02-26T10:44:17.114Z,101999.42
2019-02-26T10:45:52.915Z,102008.28
2019-02-26T10:47:29.908Z,101998.69
2019-02-26T10:49:05.365Z,102000.11
2019-02-26T10:50:42.617Z,102002.79
2019-02-26T10:52:30.588Z,101995.61
2019-02-26T10:54:12.175Z,101999.34
2019-02-26T10:55:45.425Z,101978.11
2019-02-26T10:57:26.976Z,101985.99
2019-02-26T10:59:03.549Z,101993.27
2019-02-26T11:00:38.568Z,101978.64
2019-02-26T11:02:14.562Z,101977.12
2019-02-26T11:03:52.859Z,101972.72
2019-02-26T11:05:27.001Z,101964.33
2019-02-26T11:07:04.961Z,101964.30
2019-02-26T11:08:38.923Z,101962.94
2019-02-26T11:10:14.596Z,101966.65
2019-02-26T11:11:50.834Z,101966.44
2019-02-26T11:13:25.987Z,101962.09
2019-02-26T11:15:02.440Z,101968.11
2019-02-26T11:16:39.075Z,101969.55
2019-02-26T11:18:15.103Z,101967.84
2019-02-26T11:19:55.552Z,101960.18
2019-02-26T11:21:31.045Z,101955.55
2019-02-26T11:23:08.946Z,101958.25
2019-02-26T11:24:43.547Z,101958.99
2019-02-26T11:26:18.924Z,101957.43
2019-02-26T11:27:53.834Z,101959.42
2019-02-26T11:29:30.467Z,101958.44
2019-02-26T11:31:06.111Z,101960.94
2019-02-26T11:32:42.268Z,101954.70
2019-02-26T11:34:17.091Z,101953.70
2019-02-26T11:35:52.384Z,101961.70
2019-02-26T11:37:29.409Z,101974.97
2019-02-26T11:39:06.813Z,101977.41
2019-02-26T11:40:42.491Z,101964.67
2019-02-26T11:42:18.653Z,101965.61
2019-02-26T11:43:53.790Z,101966.29
2019-02-26T11:45:28.637Z,101974.04
2019-02-26T11:47:03.772Z,101973.02
2019-02-26T11:48:38.673Z,101972.27
2019-02-26T11:50:15.983Z,101971.06
2019-02-26T11:51:51.291Z,101961.64
2019-02-26T11:53:30.788Z,101959.09
2019-02-26T11:55:08.557Z,101960.28
2019-02-26T11:56:44.557Z,101948.73
2019-02-26T11:58:22.344Z,101942.50
2019-02-26T11:59:59.484Z,101936.25
2019-02-26T12:01:34.465Z,101932.05
2019-02-26T12:03:10.922Z,101927.70
2019-02-26T12:04:46.050Z,101923.70
2019-02-26T12:06:21.241Z,101915.19
2019-02-26T12:07:56.834Z,101919.45
2019-02-26T12:09:35.023Z,101913.55
2019-02-26T12:11:12.556Z,101912.84
2019-02-26T12:12:44.732Z,101915.20
2019-02-26T12:14:21.567Z,101918.20
2019-02-26T12:15:55.916Z,101913.53
2019-02-26T12:17:31.022Z,101909.05
2019-02-26T12:19:07.937Z,101904.06
2019-02-26T12:20:43.491Z,101905.51
2019-02-26T12:22:20.429Z,101904.92
2019-02-26T12:23:57.916Z,101907.90
2019-02-26T12:25:32.505Z,101907.13
2019-02-26T12:27:09.739Z,101906.98
2019-02-26T12:28:44.324Z,101896.25
2019-02-26T12:30:20.757Z,101893.64
2019-02-26T12:31:57.791Z,101897.80
2019-02-26T12:33:32.658Z,101901.09
2019-02-26T12:35:08.729Z,101900.43
2019-02-26T12:36:44.598Z,101904.14
2019-02-26T12:38:21.390Z,101902.22
2019-02-26T12:39:57.865Z,101907.05
2019-02-26T12:41:35.921Z,101906.45
2019-02-26T12:43:11.770Z,101906.16
2019-02-26T12:44:46.103Z,101913.62
2019-02-26T12:46:21.744Z,101920.23
2019-02-26T12:47:57.438Z,101916.97
2019-02-26T12:49:34.988Z,101920.36
2019-02-26T12:51:09.317Z,101915.77
2019-02-26T12:52:45.439Z,101922.37
2019-02-26T12:54:20.916Z,101911.02
2019-02-26T12:55:56.633Z,101916.78
2019-02-26T12:57:32.931Z,101911.53
2019-02-26T12:59:07.811Z,101907.90
2019-02-26T13:00:42.629Z,101905.44
2019-02-26T13:02:20.641Z,101898.42
2019-02-26T13:03:55.117Z,101891.55
2019-02-26T13:05:30.317Z,101887.52
2019-02-26T13:07:08.384Z,101884.31
2019-02-26T13:08:42.708Z,101879.90
2019-02-26T13:10:22.205Z,101891.09
2019-02-26T13:12:02.469Z,101887.44
2019-02-26T13:13:34.142Z,101880.83
2019-02-26T13:15:12.441Z,101879.91
2019-02-26T13:16:48.863Z,101879.69
2019-02-26T13:18:24.263Z,101878.95
2019-02-26T13:20:01.677Z,101881.07
2019-02-26T13:21:35.572Z,101881.67
2019-02-26T13:23:20.580Z,101882.40
2019-02-26T13:24:46.932Z,101882.45
2019-02-26T13:26:22.685Z,101883.76
2019-02-26T13:27:57.464Z,101889.06
2019-02-26T13:29:32.750Z,101890.26
2019-02-26T13:31:08.770Z,101890.78
2019-02-26T13:32:56.348Z,101895.53
2019-02-26T13:34:20.592Z,101900.83
2019-02-26T13:35:58.792Z,101900.44
2019-02-26T13:37:35.546Z,101899.24
2019-02-26T13:39:09.573Z,101899.98
2019-02-26T13:40:44.355Z,101898.75
2019-02-26T13:42:19.723Z,101898.59
2019-02-26T13:43:54.653Z,101901.20
2019-02-26T13:45:29.974Z,101898.95
2019-02-26T13:47:05.002Z,101892.80
2019-02-26T13:48:39.797Z,101887.53
2019-02-26T13:50:24.381Z,101883.78
2019-02-26T13:51:59.176Z,101880.09
2019-02-26T13:53:34.227Z,101877.98
2019-02-26T13:55:10.597Z,101879.03
2019-02-26T13:56:45.645Z,101876.63
2019-02-26T13:58:20.541Z,101880.45
2019-02-26T13:59:55.595Z,101881.14
2019-02-26T14:01:30.756Z,101881.46
2019-02-26T14:03:06.167Z,101878.61
2019-02-26T14:04:40.933Z,101865.88
2019-02-26T14:06:15.905Z,101864.37
2019-02-26T14:07:51.353Z,101864.02
2019-02-26T14:09:26.373Z,101862.62
2019-02-26T14:11:01.175Z,101858.74
2019-02-26T14:12:36.796Z,101856.34
2019-02-26T14:14:11.690Z,101856.00
2019-02-26T14:15:46.549Z,101859.66
2019-02-26T14:17:21.360Z,101860.34
2019-02-26T14:18:56.453Z,101856.56
2019-02-26T14:20:31.325Z,101857.56
2019-02-26T14:22:06.411Z,101858.48
2019-02-26T14:23:41.801Z,101854.34
2019-02-26T14:25:16.730Z,101854.41
2019-02-26T14:26:51.563Z,101848.06
2019-02-26T14:28:26.633Z,101849.22
2019-02-26T14:30:01.419Z,101846.14
2019-02-26T14:31:36.985Z,101844.30
2019-02-26T14:33:11.810Z,101847.97
2019-02-26T14:34:46.847Z,101851.08
2019-02-26T14:36:21.644Z,101848.69
2019-02-26T14:37:56.431Z,101847.88
2019-02-26T14:39:31.254Z,101845.56
2019-02-26T14:41:06.067Z,101845.98
2019-02-26T14:42:41.099Z,101840.91
2019-02-26T14:44:15.892Z,101841.37
2019-02-26T14:45:51.091Z,101838.33
2019-02-26T14:47:25.949Z,101829.14
2019-02-26T14:49:01.203Z,101836.09
2019-02-26T14:52:34.067Z,101842.71
2019-02-26T14:54:08.959Z,101839.23
2019-02-26T14:55:43.796Z,101841.18
2019-02-26T14:57:18.811Z,101839.73
2019-02-26T14:58:55.261Z,101842.25
2019-02-26T15:00:30.266Z,101838.10
2019-02-26T15:02:05.138Z,101843.03
2019-02-26T15:03:40.508Z,101841.34
2019-02-26T15:05:16.215Z,101839.94
2019-02-26T15:06:50.990Z,101842.29
2019-02-26T15:08:26.037Z,101839.63
2019-02-26T15:10:01.451Z,101837.77
2019-02-26T15:11:36.263Z,101841.59
2019-02-26T15:13:12.467Z,101844.65
2019-02-26T15:14:48.816Z,101845.97
2019-02-26T15:16:23.811Z,101845.45
2019-02-26T15:17:58.602Z,101838.27
2019-02-26T15:19:33.446Z,101833.32
2019-02-26T15:21:08.541Z,101833.84
2019-02-26T15:22:43.365Z,101835.88
2019-02-26T15:24:18.656Z,101838.17
2019-02-26T15:25:53.492Z,101836.11
2019-02-26T15:27:35.935Z,101834.25
2019-02-26T15:29:04.922Z,101833.61
2019-02-26T15:30:39.692Z,101841.45
2019-02-26T15:32:14.908Z,101843.36
2019-02-26T15:33:50.434Z,101843.97
2019-02-26T15:35:25.753Z,101849.16
2019-02-26T15:37:00.878Z,101852.72
2019-02-26T15:38:35.681Z,101851.10
2019-02-26T15:40:12.165Z,101849.52
2019-02-26T15:41:48.279Z,101850.55
2019-02-26T15:43:24.520Z,101852.11
2019-02-26T15:45:00.376Z,101848.76
2019-02-26T15:46:35.627Z,101850.74
2019-02-26T15:49:13.874Z,101860.24
2019-02-26T15:50:49.475Z,101872.47
2019-02-26T15:52:24.079Z,101872.39
2019-02-26T15:53:59.527Z,101874.53
2019-02-26T15:55:34.749Z,101873.48
2019-02-26T15:57:10.134Z,101869.72
2019-02-26T15:58:45.001Z,101863.07
2019-02-26T16:00:21.233Z,101865.70
2019-02-26T16:01:56.083Z,101862.92
2019-02-26T16:03:30.954Z,101854.02
2019-02-26T16:05:06.772Z,101852.81
2019-02-26T16:06:41.862Z,101843.41
2019-02-26T16:08:16.870Z,101846.89
2019-02-26T16:09:51.385Z,101845.84
2019-02-26T16:11:25.901Z,101851.34
2019-02-26T16:13:04.320Z,101845.81
2019-02-26T16:14:38.818Z,101849.28
2019-02-26T16:16:13.468Z,101839.05
2019-02-26T16:17:48.457Z,101837.09
2019-02-26T16:19:23.098Z,101841.33
2019-02-26T16:20:58.170Z,101845.53
2019-02-26T16:22:33.057Z,101847.80
2019-02-26T16:24:08.165Z,101853.02
2019-02-26T16:25:43.190Z,101848.78
2019-02-26T16:27:19.833Z,101850.23
2019-02-26T16:28:56.411Z,101862.88
2019-02-26T16:30:31.499Z,101857.49
2019-02-26T16:32:06.291Z,101860.62
2019-02-26T16:33:41.126Z,101859.53
2019-02-26T16:35:16.479Z,101861.51
2019-02-26T16:36:51.528Z,101861.83
2019-02-26T16:38:26.563Z,101861.17
2019-02-26T16:40:01.394Z,101866.66
2019-02-26T16:41:38.321Z,101867.45
2019-02-26T16:43:14.801Z,101863.83
2019-02-26T16:44:49.834Z,101863.60
2019-02-26T16:46:25.217Z,101865.56
2019-02-26T16:48:00.325Z,101874.58
2019-02-26T16:49:35.880Z,101876.73
2019-02-26T16:51:10.743Z,101881.08
2019-02-26T16:52:45.628Z,101884.14
2019-02-26T16:54:20.743Z,101881.91
2019-02-26T16:55:56.236Z,101884.45
2019-02-26T16:57:31.279Z,101885.77
2019-02-26T16:59:07.837Z,101884.52
2019-02-26T17:00:43.094Z,101889.09
2019-02-26T17:02:18.146Z,101884.83
2019-02-26T17:03:52.944Z,101882.95
2019-02-26T17:05:27.780Z,101882.78
2019-02-26T17:07:03.086Z,101880.53
2019-02-26T17:08:37.984Z,101871.27
2019-02-26T17:10:15.443Z,101882.62
2019-02-26T17:11:50.361Z,101884.50
2019-02-26T17:13:25.386Z,101883.27
2019-02-26T17:15:00.746Z,101884.17
2019-02-26T17:16:35.772Z,101884.01
2019-02-26T17:18:10.739Z,101883.03
2019-02-26T17:19:48.360Z,101888.38
2019-02-26T17:21:22.397Z,101894.58
2019-02-26T17:22:57.178Z,101894.59
2019-02-26T17:24:32.243Z,101900.47
2019-02-26T17:26:07.036Z,101896.15
2019-02-26T17:27:42.142Z,101890.55
2019-02-26T17:29:17.512Z,101896.33
2019-02-26T17:30:53.263Z,101905.20
2019-02-26T17:32:28.049Z,101893.62
2019-02-26T17:34:02.840Z,101886.68
2019-02-26T17:35:37.627Z,101892.91
2019-02-26T17:37:12.445Z,101885.62
2019-02-26T17:38:51.470Z,101891.88
2019-02-26T17:40:23.903Z,101892.30
2019-02-26T17:41:58.684Z,101900.45
2019-02-26T17:43:34.353Z,101899.47
2019-02-26T17:45:12.465Z,101896.39
2019-02-26T17:46:47.577Z,101897.23
2019-02-26T17:48:22.440Z,101908.17
2019-02-26T17:49:57.246Z,101906.19
2019-02-26T17:51:32.354Z,101901.90
2019-02-26T17:53:07.692Z,101905.36
2019-02-26T17:54:42.477Z,101906.38
2019-02-26T17:56:17.295Z,101910.73
2019-02-26T17:57:52.166Z,101904.83
2019-02-26T17:59:26.990Z,101914.55
2019-02-26T18:01:01.790Z,101912.56
2019-02-26T18:02:37.253Z,101918.18
2019-02-26T18:04:12.369Z,101916.85
2019-02-26T18:05:51.219Z,101926.88
2019-02-26T18:07:23.186Z,101922.34
2019-02-26T18:08:57.614Z,101918.63
2019-02-26T18:10:31.981Z,101920.61
2019-02-26T18:12:06.353Z,101918.28
2019-02-26T18:13:40.727Z,101919.22
2019-02-26T18:15:17.622Z,101911.27
2019-02-26T18:16:51.957Z,101914.05
2019-02-26T18:18:26.654Z,101916.75
2019-02-26T18:20:01.416Z,101922.73
2019-02-26T18:21:36.634Z,101922.84
2019-02-26T18:23:13.211Z,101924.61
2019-02-26T18:24:51.086Z,101929.69
2019-02-26T18:26:26.115Z,101930.42
2019-02-26T18:28:01.016Z,101931.67
2019-02-26T18:29:36.199Z,101934.77
2019-02-26T18:31:11.045Z,101938.37
2019-02-26T18:32:50.293Z,101943.16
2019-02-26T18:34:23.226Z,101953.61
2019-02-26T18:35:59.340Z,101957.11
2019-02-26T18:37:34.236Z,101963.06
2019-02-26T18:39:11.202Z,101964.95
2019-02-26T18:40:45.614Z,101964.68
2019-02-26T18:42:20.377Z,101963.33
2019-02-26T18:43:54.504Z,101957.67
2019-02-26T18:45:29.143Z,101961.84
2019-02-26T18:47:04.819Z,101958.53
2019-02-26T18:48:40.304Z,101956.30
2019-02-26T18:50:15.100Z,101957.90
2019-02-26T18:51:49.853Z,101968.99
2019-02-26T18:53:24.352Z,101973.17
2019-02-26T18:54:59.051Z,101967.49
2019-02-26T18:56:36.656Z,101972.37
2019-02-26T18:58:09.500Z,101967.94
2019-02-26T18:59:43.911Z,101966.06
2019-02-26T19:01:18.261Z,101963.30
2019-02-26T19:02:52.707Z,101962.44
2019-02-26T19:04:27.328Z,101962.06
2019-02-26T19:06:03.546Z,101964.13
2019-02-26T19:07:38.141Z,101964.41
2019-02-26T19:09:12.889Z,101969.78
2019-02-26T19:10:47.509Z,101966.31
2019-02-26T19:12:22.310Z,101966.00
2019-02-26T19:13:56.677Z,101962.94
2019-02-26T19:15:33.413Z,101964.05
2019-02-26T19:17:07.768Z,101958.84
2019-02-26T19:18:42.231Z,101960.45
2019-02-26T19:20:17.695Z,101960.48
2019-02-26T19:21:54.110Z,101975.76
2019-02-26T19:23:31.417Z,101967.78
2019-02-26T19:25:06.883Z,101964.92
2019-02-26T19:26:41.797Z,101967.05
2019-02-26T19:28:16.478Z,101962.27
2019-02-26T19:29:51.203Z,101966.01
2019-02-26T19:31:25.660Z,101963.18
2019-02-26T19:33:00.029Z,101963.31
2019-02-26T19:34:34.403Z,101966.99
2019-02-26T19:36:10.642Z,101962.56
2019-02-26T19:37:45.068Z,101967.33
2019-02-26T19:39:19.737Z,101970.98
2019-02-26T19:40:54.214Z,101970.41
2019-02-26T19:42:28.865Z,101976.66
2019-02-26T19:44:03.236Z,101978.75
2019-02-26T19:45:38.200Z,101970.17
2019-02-26T19:47:14.283Z,101971.66
2019-02-26T19:48:49.087Z,101970.33
2019-02-26T19:50:23.906Z,101966.57
2019-02-26T19:51:58.285Z,101967.03
2019-02-26T19:53:34.640Z,101972.29
2019-02-26T19:55:12.921Z,101973.38
2019-02-26T19:56:48.562Z,101970.02
2019-02-26T19:58:22.938Z,101962.22
2019-02-26T19:59:57.595Z,101961.42
2019-02-26T20:01:31.975Z,101958.98
2019-02-26T20:03:06.895Z,101956.53